sensor_id;sensor_type;location;lat;lon;timestamp;P1;durP1;ratioP1;P2;durP2;ratioP2
4686;SDS011;2357;47.316;-1.348;2022-09-24T00:00:36;10.60;;;8.50;;
4686;SDS011;2357;47.316;-1.348;2022-09-24T00:03:02;11.27;;;8.60;;
4686;SDS011;2357;47.316;-1.348;2022-09-24T00:05:28;8.53;;;6.87;;
4686;SDS011;2357;47.316;-1.348;2022-09-24T00:07:54;7.40;;;6.70;;
4686;SDS011;2357;47.316;-1.348;2022-09-24T00:10:19;8.80;;;6.93;;
4686;SDS011;2357;47.316;-1.348;2022-09-24T00:12:47;8.73;;;7.70;;
4686;SDS011;2357;47.316;-1.348;2022-09-24T00:15:12;13.20;;;9.50;;
4686;SDS011;2357;47.316;-1.348;2022-09-24T00:17:38;12.90;;;9.70;;
4686;SDS011;2357;47.316;-1.348;2022-09-24T00:20:03;11.83;;;9.83;;
4686;SDS011;2357;47.316;-1.348;2022-09-24T00:22:31;13.33;;;10.00;;
4686;SDS011;2357;47.316;-1.348;2022-09-24T00:24:56;13.90;;;9.53;;
4686;SDS011;2357;47.316;-1.348;2022-09-24T00:27:41;10.57;;;9.10;;
4686;SDS011;2357;47.316;-1.348;2022-09-24T00:30:07;10.20;;;8.30;;
4686;SDS011;2357;47.316;-1.348;2022-09-24T00:32:33;9.00;;;8.20;;
4686;SDS011;2357;47.316;-1.348;2022-09-24T00:34:58;10.27;;;8.67;;
4686;SDS011;2357;47.316;-1.348;2022-09-24T00:37:24;9.00;;;8.00;;
4686;SDS011;2357;47.316;-1.348;2022-09-24T00:39:49;10.70;;;8.17;;
4686;SDS011;2357;47.316;-1.348;2022-09-24T00:42:17;8.60;;;7.90;;
4686;SDS011;2357;47.316;-1.348;2022-09-24T00:47:12;17.60;;;8.03;;
4686;SDS011;2357;47.316;-1.348;2022-09-24T00:49:42;9.37;;;8.43;;
4686;SDS011;2357;47.316;-1.348;2022-09-24T00:52:12;9.57;;;8.00;;
4686;SDS011;2357;47.316;-1.348;2022-09-24T00:54:38;8.40;;;7.40;;
4686;SDS011;2357;47.316;-1.348;2022-09-24T00:57:07;8.83;;;6.63;;
4686;SDS011;2357;47.316;-1.348;2022-09-24T00:59:32;7.57;;;6.80;;
4686;SDS011;2357;47.316;-1.348;2022-09-24T01:01:59;7.40;;;6.47;;
4686;SDS011;2357;47.316;-1.348;2022-09-24T01:04:27;7.73;;;6.60;;
4686;SDS011;2357;47.316;-1.348;2022-09-24T01:06:53;6.97;;;6.37;;
4686;SDS011;2357;47.316;-1.348;2022-09-24T01:09:20;7.17;;;6.10;;
4686;SDS011;2357;47.316;-1.348;2022-09-24T01:14:57;6.20;;;5.60;;
4686;SDS011;2357;47.316;-1.348;2022-09-24T01:17:51;6.00;;;5.50;;
4686;SDS011;2357;47.316;-1.348;2022-09-24T01:25:29;8.53;;;5.90;;
4686;SDS011;2357;47.316;-1.348;2022-09-24T01:30:58;6.67;;;6.07;;
4686;SDS011;2357;47.316;-1.348;2022-09-24T01:33:30;8.20;;;6.70;;
4686;SDS011;2357;47.316;-1.348;2022-09-24T01:35:58;9.97;;;6.43;;
4686;SDS011;2357;47.316;-1.348;2022-09-24T01:38:31;8.47;;;6.60;;
4686;SDS011;2357;47.316;-1.348;2022-09-24T01:41:02;7.53;;;6.53;;
4686;SDS011;2357;47.316;-1.348;2022-09-24T01:43:29;8.00;;;7.17;;
4686;SDS011;2357;47.316;-1.348;2022-09-24T01:45:57;8.33;;;7.43;;
4686;SDS011;2357;47.316;-1.348;2022-09-24T01:48:25;13.43;;;7.37;;
4686;SDS011;2357;47.316;-1.348;2022-09-24T01:50:56;9.73;;;6.87;;
4686;SDS011;2357;47.316;-1.348;2022-09-24T01:53:28;7.33;;;6.40;;
4686;SDS011;2357;47.316;-1.348;2022-09-24T01:56:05;9.60;;;7.97;;
4686;SDS011;2357;47.316;-1.348;2022-09-24T01:58:45;9.00;;;6.23;;
4686;SDS011;2357;47.316;-1.348;2022-09-24T02:01:22;7.93;;;7.20;;
4686;SDS011;2357;47.316;-1.348;2022-09-24T02:03:57;8.73;;;7.03;;
4686;SDS011;2357;47.316;-1.348;2022-09-24T02:06:35;8.32;;;6.60;;
4686;SDS011;2357;47.316;-1.348;2022-09-24T02:09:27;7.80;;;6.97;;
4686;SDS011;2357;47.316;-1.348;2022-09-24T02:11:59;7.10;;;6.40;;
4686;SDS011;2357;47.316;-1.348;2022-09-24T02:14:35;6.77;;;6.17;;
4686;SDS011;2357;47.316;-1.348;2022-09-24T02:17:06;7.80;;;6.30;;
4686;SDS011;2357;47.316;-1.348;2022-09-24T02:19:34;8.27;;;7.20;;
4686;SDS011;2357;47.316;-1.348;2022-09-24T02:22:01;14.83;;;7.23;;
4686;SDS011;2357;47.316;-1.348;2022-09-24T02:24:31;9.30;;;7.53;;
4686;SDS011;2357;47.316;-1.348;2022-09-24T02:27:16;12.10;;;7.03;;
4686;SDS011;2357;47.316;-1.348;2022-09-24T02:29:42;9.23;;;6.90;;
4686;SDS011;2357;47.316;-1.348;2022-09-24T02:32:09;6.60;;;6.00;;
4686;SDS011;2357;47.316;-1.348;2022-09-24T02:34:39;13.43;;;7.70;;
4686;SDS011;2357;47.316;-1.348;2022-09-24T02:37:11;14.40;;;8.57;;
4686;SDS011;2357;47.316;-1.348;2022-09-24T02:39:38;11.90;;;8.93;;
4686;SDS011;2357;47.316;-1.348;2022-09-24T02:42:04;13.10;;;8.63;;
4686;SDS011;2357;47.316;-1.348;2022-09-24T02:44:32;13.60;;;9.90;;
4686;SDS011;2357;47.316;-1.348;2022-09-24T02:47:00;12.30;;;9.50;;
4686;SDS011;2357;47.316;-1.348;2022-09-24T02:49:26;13.63;;;9.60;;
4686;SDS011;2357;47.316;-1.348;2022-09-24T02:51:51;13.53;;;9.40;;
4686;SDS011;2357;47.316;-1.348;2022-09-24T02:54:17;11.80;;;9.60;;
4686;SDS011;2357;47.316;-1.348;2022-09-24T02:56:43;11.53;;;9.90;;
4686;SDS011;2357;47.316;-1.348;2022-09-24T02:59:08;14.67;;;10.43;;
4686;SDS011;2357;47.316;-1.348;2022-09-24T03:01:34;13.00;;;10.60;;
4686;SDS011;2357;47.316;-1.348;2022-09-24T03:04:00;20.33;;;11.13;;
4686;SDS011;2357;47.316;-1.348;2022-09-24T03:06:26;14.27;;;9.43;;
4686;SDS011;2357;47.316;-1.348;2022-09-24T03:08:52;15.83;;;10.43;;
4686;SDS011;2357;47.316;-1.348;2022-09-24T03:11:18;17.87;;;10.87;;
4686;SDS011;2357;47.316;-1.348;2022-09-24T03:13:48;21.70;;;10.40;;
4686;SDS011;2357;47.316;-1.348;2022-09-24T03:16:14;15.87;;;10.40;;
4686;SDS011;2357;47.316;-1.348;2022-09-24T03:18:40;12.70;;;9.80;;
4686;SDS011;2357;47.316;-1.348;2022-09-24T03:21:07;15.57;;;9.33;;
4686;SDS011;2357;47.316;-1.348;2022-09-24T03:23:35;14.27;;;9.90;;
4686;SDS011;2357;47.316;-1.348;2022-09-24T03:26:01;15.17;;;10.80;;
4686;SDS011;2357;47.316;-1.348;2022-09-24T03:28:27;12.67;;;9.80;;
4686;SDS011;2357;47.316;-1.348;2022-09-24T03:30:53;14.90;;;10.13;;
4686;SDS011;2357;47.316;-1.348;2022-09-24T03:36:15;12.50;;;9.00;;
4686;SDS011;2357;47.316;-1.348;2022-09-24T03:38:45;13.40;;;10.20;;
4686;SDS011;2357;47.316;-1.348;2022-09-24T03:41:12;13.70;;;9.73;;
4686;SDS011;2357;47.316;-1.348;2022-09-24T03:43:39;13.43;;;8.80;;
4686;SDS011;2357;47.316;-1.348;2022-09-24T03:46:05;13.43;;;9.30;;
4686;SDS011;2357;47.316;-1.348;2022-09-24T03:48:33;14.00;;;9.50;;
4686;SDS011;2357;47.316;-1.348;2022-09-24T03:51:03;15.13;;;9.40;;
4686;SDS011;2357;47.316;-1.348;2022-09-24T03:53:30;14.50;;;9.83;;
4686;SDS011;2357;47.316;-1.348;2022-09-24T03:55:56;14.07;;;9.70;;
4686;SDS011;2357;47.316;-1.348;2022-09-24T03:58:23;17.70;;;9.73;;
4686;SDS011;2357;47.316;-1.348;2022-09-24T04:00:52;13.03;;;9.27;;
4686;SDS011;2357;47.316;-1.348;2022-09-24T04:03:19;11.33;;;8.43;;
4686;SDS011;2357;47.316;-1.348;2022-09-24T04:05:45;17.50;;;9.37;;
4686;SDS011;2357;47.316;-1.348;2022-09-24T04:08:11;12.53;;;9.20;;
4686;SDS011;2357;47.316;-1.348;2022-09-24T04:10:37;16.93;;;8.87;;
4686;SDS011;2357;47.316;-1.348;2022-09-24T04:13:02;12.40;;;7.83;;
4686;SDS011;2357;47.316;-1.348;2022-09-24T04:15:28;15.93;;;9.10;;
4686;SDS011;2357;47.316;-1.348;2022-09-24T04:17:55;10.40;;;9.30;;
4686;SDS011;2357;47.316;-1.348;2022-09-24T04:20:22;10.30;;;8.20;;
4686;SDS011;2357;47.316;-1.348;2022-09-24T04:22:50;11.83;;;9.70;;
4686;SDS011;2357;47.316;-1.348;2022-09-24T04:25:17;11.77;;;9.00;;
4686;SDS011;2357;47.316;-1.348;2022-09-24T04:27:45;12.67;;;9.00;;
4686;SDS011;2357;47.316;-1.348;2022-09-24T04:30:12;13.83;;;8.90;;
4686;SDS011;2357;47.316;-1.348;2022-09-24T04:32:39;13.80;;;9.90;;
4686;SDS011;2357;47.316;-1.348;2022-09-24T04:35:05;9.87;;;8.40;;
4686;SDS011;2357;47.316;-1.348;2022-09-24T04:37:32;11.97;;;9.20;;
4686;SDS011;2357;47.316;-1.348;2022-09-24T04:39:57;11.70;;;8.87;;
4686;SDS011;2357;47.316;-1.348;2022-09-24T04:42:23;36.63;;;9.50;;
4686;SDS011;2357;47.316;-1.348;2022-09-24T04:44:49;12.40;;;9.30;;
4686;SDS011;2357;47.316;-1.348;2022-09-24T04:47:14;12.27;;;8.30;;
4686;SDS011;2357;47.316;-1.348;2022-09-24T04:49:41;10.97;;;9.30;;
4686;SDS011;2357;47.316;-1.348;2022-09-24T04:52:09;15.70;;;9.57;;
4686;SDS011;2357;47.316;-1.348;2022-09-24T04:54:34;9.83;;;8.00;;
4686;SDS011;2357;47.316;-1.348;2022-09-24T04:57:00;11.00;;;8.60;;
4686;SDS011;2357;47.316;-1.348;2022-09-24T04:59:25;11.33;;;8.80;;
4686;SDS011;2357;47.316;-1.348;2022-09-24T05:01:51;10.30;;;8.40;;
4686;SDS011;2357;47.316;-1.348;2022-09-24T05:04:18;12.20;;;9.40;;
4686;SDS011;2357;47.316;-1.348;2022-09-24T05:06:43;11.27;;;8.50;;
4686;SDS011;2357;47.316;-1.348;2022-09-24T05:09:09;10.47;;;7.20;;
4686;SDS011;2357;47.316;-1.348;2022-09-24T05:11:35;10.83;;;8.13;;
4686;SDS011;2357;47.316;-1.348;2022-09-24T05:14:01;12.00;;;8.63;;
4686;SDS011;2357;47.316;-1.348;2022-09-24T05:16:26;17.33;;;8.10;;
4686;SDS011;2357;47.316;-1.348;2022-09-24T05:18:52;12.00;;;8.10;;
4686;SDS011;2357;47.316;-1.348;2022-09-24T05:21:18;11.80;;;9.50;;
4686;SDS011;2357;47.316;-1.348;2022-09-24T05:23:44;14.17;;;10.57;;
4686;SDS011;2357;47.316;-1.348;2022-09-24T05:26:09;16.83;;;9.80;;
4686;SDS011;2357;47.316;-1.348;2022-09-24T05:28:53;11.43;;;9.53;;
4686;SDS011;2357;47.316;-1.348;2022-09-24T05:31:19;10.13;;;8.77;;
4686;SDS011;2357;47.316;-1.348;2022-09-24T05:33:44;11.73;;;9.17;;
4686;SDS011;2357;47.316;-1.348;2022-09-24T05:36:10;12.47;;;9.37;;
4686;SDS011;2357;47.316;-1.348;2022-09-24T05:38:36;15.60;;;10.17;;
4686;SDS011;2357;47.316;-1.348;2022-09-24T05:41:01;14.30;;;9.27;;
4686;SDS011;2357;47.316;-1.348;2022-09-24T05:43:27;14.70;;;10.30;;
4686;SDS011;2357;47.316;-1.348;2022-09-24T05:45:53;10.50;;;8.30;;
4686;SDS011;2357;47.316;-1.348;2022-09-24T05:48:21;14.53;;;8.93;;
4686;SDS011;2357;47.316;-1.348;2022-09-24T05:50:46;12.93;;;9.40;;
4686;SDS011;2357;47.316;-1.348;2022-09-24T05:53:12;11.00;;;9.43;;
4686;SDS011;2357;47.316;-1.348;2022-09-24T05:55:37;11.83;;;9.50;;
4686;SDS011;2357;47.316;-1.348;2022-09-24T05:58:07;11.67;;;9.50;;
4686;SDS011;2357;47.316;-1.348;2022-09-24T06:00:34;11.90;;;8.97;;
4686;SDS011;2357;47.316;-1.348;2022-09-24T06:03:01;18.23;;;8.30;;
4686;SDS011;2357;47.316;-1.348;2022-09-24T06:05:33;12.40;;;8.60;;
4686;SDS011;2357;47.316;-1.348;2022-09-24T06:08:00;12.30;;;8.63;;
4686;SDS011;2357;47.316;-1.348;2022-09-24T06:10:29;13.00;;;9.33;;
4686;SDS011;2357;47.316;-1.348;2022-09-24T06:12:55;12.30;;;8.63;;
4686;SDS011;2357;47.316;-1.348;2022-09-24T06:15:21;11.20;;;7.90;;
4686;SDS011;2357;47.316;-1.348;2022-09-24T06:17:47;15.40;;;9.80;;
4686;SDS011;2357;47.316;-1.348;2022-09-24T06:20:12;14.40;;;9.07;;
4686;SDS011;2357;47.316;-1.348;2022-09-24T06:22:39;10.03;;;8.50;;
4686;SDS011;2357;47.316;-1.348;2022-09-24T06:25:05;12.73;;;8.70;;
4686;SDS011;2357;47.316;-1.348;2022-09-24T06:27:31;12.10;;;8.33;;
4686;SDS011;2357;47.316;-1.348;2022-09-24T06:29:57;10.37;;;8.87;;
4686;SDS011;2357;47.316;-1.348;2022-09-24T06:32:23;9.73;;;8.00;;
4686;SDS011;2357;47.316;-1.348;2022-09-24T06:34:49;9.30;;;6.73;;
4686;SDS011;2357;47.316;-1.348;2022-09-24T06:37:15;9.00;;;7.80;;
4686;SDS011;2357;47.316;-1.348;2022-09-24T06:39:40;9.63;;;8.00;;
4686;SDS011;2357;47.316;-1.348;2022-09-24T06:42:06;10.07;;;8.93;;
4686;SDS011;2357;47.316;-1.348;2022-09-24T06:44:33;10.13;;;8.00;;
4686;SDS011;2357;47.316;-1.348;2022-09-24T06:46:59;10.27;;;8.07;;
4686;SDS011;2357;47.316;-1.348;2022-09-24T06:49:25;12.13;;;7.73;;
4686;SDS011;2357;47.316;-1.348;2022-09-24T06:51:54;9.97;;;6.73;;
4686;SDS011;2357;47.316;-1.348;2022-09-24T06:54:20;15.67;;;7.73;;
4686;SDS011;2357;47.316;-1.348;2022-09-24T06:56:47;15.20;;;8.73;;
4686;SDS011;2357;47.316;-1.348;2022-09-24T06:59:13;10.40;;;8.03;;
4686;SDS011;2357;47.316;-1.348;2022-09-24T07:01:38;11.90;;;8.37;;
4686;SDS011;2357;47.316;-1.348;2022-09-24T07:04:04;9.90;;;7.60;;
4686;SDS011;2357;47.316;-1.348;2022-09-24T07:06:30;10.23;;;7.50;;
4686;SDS011;2357;47.316;-1.348;2022-09-24T07:09:17;9.20;;;7.47;;
4686;SDS011;2357;47.316;-1.348;2022-09-24T07:11:43;10.30;;;7.20;;
4686;SDS011;2357;47.316;-1.348;2022-09-24T07:14:10;12.33;;;7.60;;
4686;SDS011;2357;47.316;-1.348;2022-09-24T07:16:37;9.70;;;7.60;;
4686;SDS011;2357;47.316;-1.348;2022-09-24T07:19:02;8.17;;;7.37;;
4686;SDS011;2357;47.316;-1.348;2022-09-24T07:21:28;9.80;;;7.23;;
4686;SDS011;2357;47.316;-1.348;2022-09-24T07:23:54;11.20;;;8.30;;
4686;SDS011;2357;47.316;-1.348;2022-09-24T07:26:19;7.50;;;6.80;;
4686;SDS011;2357;47.316;-1.348;2022-09-24T07:28:45;10.70;;;7.40;;
4686;SDS011;2357;47.316;-1.348;2022-09-24T07:31:10;16.23;;;8.00;;
4686;SDS011;2357;47.316;-1.348;2022-09-24T07:33:36;16.43;;;7.17;;
4686;SDS011;2357;47.316;-1.348;2022-09-24T07:36:04;10.00;;;6.73;;
4686;SDS011;2357;47.316;-1.348;2022-09-24T07:38:33;8.07;;;7.17;;
4686;SDS011;2357;47.316;-1.348;2022-09-24T07:41:00;8.50;;;6.60;;
4686;SDS011;2357;47.316;-1.348;2022-09-24T07:43:30;9.80;;;7.07;;
4686;SDS011;2357;47.316;-1.348;2022-09-24T07:45:57;8.20;;;6.70;;
4686;SDS011;2357;47.316;-1.348;2022-09-24T07:48:22;14.07;;;7.60;;
4686;SDS011;2357;47.316;-1.348;2022-09-24T07:50:48;10.87;;;7.80;;
4686;SDS011;2357;47.316;-1.348;2022-09-24T07:53:15;8.47;;;6.70;;
4686;SDS011;2357;47.316;-1.348;2022-09-24T07:55:41;14.53;;;7.33;;
4686;SDS011;2357;47.316;-1.348;2022-09-24T07:58:08;11.00;;;6.60;;
4686;SDS011;2357;47.316;-1.348;2022-09-24T08:00:37;9.73;;;6.97;;
4686;SDS011;2357;47.316;-1.348;2022-09-24T08:03:03;10.20;;;6.73;;
4686;SDS011;2357;47.316;-1.348;2022-09-24T08:05:29;10.13;;;6.60;;
4686;SDS011;2357;47.316;-1.348;2022-09-24T08:07:56;11.23;;;7.27;;
4686;SDS011;2357;47.316;-1.348;2022-09-24T08:10:23;9.43;;;7.43;;
4686;SDS011;2357;47.316;-1.348;2022-09-24T08:12:50;8.27;;;6.30;;
4686;SDS011;2357;47.316;-1.348;2022-09-24T08:15:16;6.67;;;5.80;;
4686;SDS011;2357;47.316;-1.348;2022-09-24T08:17:42;9.53;;;6.50;;
4686;SDS011;2357;47.316;-1.348;2022-09-24T08:20:08;11.40;;;7.67;;
4686;SDS011;2357;47.316;-1.348;2022-09-24T08:22:34;9.83;;;7.00;;
4686;SDS011;2357;47.316;-1.348;2022-09-24T08:25:00;8.70;;;6.47;;
4686;SDS011;2357;47.316;-1.348;2022-09-24T08:27:28;10.83;;;6.83;;
4686;SDS011;2357;47.316;-1.348;2022-09-24T08:29:53;10.87;;;7.07;;
4686;SDS011;2357;47.316;-1.348;2022-09-24T08:32:20;8.40;;;7.53;;
4686;SDS011;2357;47.316;-1.348;2022-09-24T08:34:45;8.30;;;6.20;;
4686;SDS011;2357;47.316;-1.348;2022-09-24T08:37:11;6.23;;;5.63;;
4686;SDS011;2357;47.316;-1.348;2022-09-24T08:39:37;8.50;;;5.90;;
4686;SDS011;2357;47.316;-1.348;2022-09-24T08:42:10;6.83;;;5.90;;
4686;SDS011;2357;47.316;-1.348;2022-09-24T08:44:52;7.07;;;5.73;;
4686;SDS011;2357;47.316;-1.348;2022-09-24T08:47:42;7.20;;;6.50;;
4686;SDS011;2357;47.316;-1.348;2022-09-24T08:50:30;7.50;;;6.37;;
4686;SDS011;2357;47.316;-1.348;2022-09-24T08:53:05;6.63;;;5.93;;
4686;SDS011;2357;47.316;-1.348;2022-09-24T08:55:48;9.73;;;5.73;;
4686;SDS011;2357;47.316;-1.348;2022-09-24T09:06:45;4.50;;;4.00;;
4686;SDS011;2357;47.316;-1.348;2022-09-24T09:09:38;4.20;;;3.63;;
4686;SDS011;2357;47.316;-1.348;2022-09-24T09:12:20;4.50;;;4.10;;
4686;SDS011;2357;47.316;-1.348;2022-09-24T09:14:57;4.00;;;3.70;;
4686;SDS011;2357;47.316;-1.348;2022-09-24T09:17:39;7.10;;;4.50;;
4686;SDS011;2357;47.316;-1.348;2022-09-24T09:20:15;5.13;;;3.80;;
4686;SDS011;2357;47.316;-1.348;2022-09-24T09:26:07;5.50;;;4.33;;
4686;SDS011;2357;47.316;-1.348;2022-09-24T09:28:35;6.03;;;4.50;;
4686;SDS011;2357;47.316;-1.348;2022-09-24T09:42:36;4.63;;;4.23;;
4686;SDS011;2357;47.316;-1.348;2022-09-24T09:45:18;4.23;;;3.83;;
4686;SDS011;2357;47.316;-1.348;2022-09-24T09:47:48;4.57;;;4.13;;
4686;SDS011;2357;47.316;-1.348;2022-09-24T09:52:52;4.60;;;4.20;;
4686;SDS011;2357;47.316;-1.348;2022-09-24T09:55:25;4.63;;;3.93;;
4686;SDS011;2357;47.316;-1.348;2022-09-24T09:58:00;5.20;;;4.53;;
4686;SDS011;2357;47.316;-1.348;2022-09-24T10:00:44;4.53;;;4.13;;
4686;SDS011;2357;47.316;-1.348;2022-09-24T10:03:20;5.43;;;4.93;;
4686;SDS011;2357;47.316;-1.348;2022-09-24T10:05:56;5.20;;;4.73;;
4686;SDS011;2357;47.316;-1.348;2022-09-24T10:08:24;6.83;;;4.30;;
4686;SDS011;2357;47.316;-1.348;2022-09-24T10:10:57;5.20;;;4.67;;
4686;SDS011;2357;47.316;-1.348;2022-09-24T10:13:24;5.40;;;4.90;;
4686;SDS011;2357;47.316;-1.348;2022-09-24T10:15:52;4.10;;;3.70;;
4686;SDS011;2357;47.316;-1.348;2022-09-24T10:18:29;4.87;;;4.37;;
4686;SDS011;2357;47.316;-1.348;2022-09-24T10:21:03;5.80;;;4.10;;
4686;SDS011;2357;47.316;-1.348;2022-09-24T10:26:21;9.30;;;4.00;;
4686;SDS011;2357;47.316;-1.348;2022-09-24T10:28:58;7.50;;;4.00;;
4686;SDS011;2357;47.316;-1.348;2022-09-24T10:31:43;5.73;;;4.13;;
4686;SDS011;2357;47.316;-1.348;2022-09-24T10:34:25;4.47;;;4.07;;
4686;SDS011;2357;47.316;-1.348;2022-09-24T10:37:00;5.37;;;3.63;;
4686;SDS011;2357;47.316;-1.348;2022-09-24T10:39:27;7.40;;;4.07;;
4686;SDS011;2357;47.316;-1.348;2022-09-24T10:41:54;6.07;;;4.00;;
4686;SDS011;2357;47.316;-1.348;2022-09-24T10:44:21;8.97;;;3.93;;
4686;SDS011;2357;47.316;-1.348;2022-09-24T10:58:49;6.70;;;4.03;;
4686;SDS011;2357;47.316;-1.348;2022-09-24T11:01:33;5.63;;;3.07;;
4686;SDS011;2357;47.316;-1.348;2022-09-24T11:09:55;4.03;;;2.50;;
4686;SDS011;2357;47.316;-1.348;2022-09-24T11:12:53;8.73;;;2.60;;
4686;SDS011;2357;47.316;-1.348;2022-09-24T11:15:54;3.50;;;2.17;;
4686;SDS011;2357;47.316;-1.348;2022-09-24T11:30:05;5.00;;;2.03;;
4686;SDS011;2357;47.316;-1.348;2022-09-24T11:35:09;4.57;;;2.03;;
4686;SDS011;2357;47.316;-1.348;2022-09-24T11:46:01;3.37;;;1.87;;
4686;SDS011;2357;47.316;-1.348;2022-09-24T11:53:54;11.47;;;1.50;;
4686;SDS011;2357;47.316;-1.348;2022-09-24T11:56:37;3.03;;;1.17;;
4686;SDS011;2357;47.316;-1.348;2022-09-24T11:59:29;5.97;;;1.33;;
4686;SDS011;2357;47.316;-1.348;2022-09-24T12:05:17;2.83;;;1.10;;
4686;SDS011;2357;47.316;-1.348;2022-09-24T12:10:42;1.33;;;0.90;;
4686;SDS011;2357;47.316;-1.348;2022-09-24T12:13:21;2.40;;;0.80;;
4686;SDS011;2357;47.316;-1.348;2022-09-24T12:15:54;2.87;;;1.10;;
4686;SDS011;2357;47.316;-1.348;2022-09-24T12:18:46;5.10;;;1.17;;
4686;SDS011;2357;47.316;-1.348;2022-09-24T12:21:33;7.43;;;1.17;;
4686;SDS011;2357;47.316;-1.348;2022-09-24T12:24:06;2.70;;;1.20;;
4686;SDS011;2357;47.316;-1.348;2022-09-24T12:26:37;4.00;;;1.13;;
4686;SDS011;2357;47.316;-1.348;2022-09-24T12:32:10;5.10;;;1.00;;
4686;SDS011;2357;47.316;-1.348;2022-09-24T12:42:58;2.63;;;0.77;;
4686;SDS011;2357;47.316;-1.348;2022-09-24T12:45:27;3.63;;;0.73;;
4686;SDS011;2357;47.316;-1.348;2022-09-24T12:47:54;4.73;;;0.77;;
4686;SDS011;2357;47.316;-1.348;2022-09-24T12:50:25;1.73;;;0.70;;
4686;SDS011;2357;47.316;-1.348;2022-09-24T12:52:53;1.80;;;0.90;;
4686;SDS011;2357;47.316;-1.348;2022-09-24T12:55:23;1.37;;;0.70;;
4686;SDS011;2357;47.316;-1.348;2022-09-24T12:57:58;6.40;;;1.00;;
4686;SDS011;2357;47.316;-1.348;2022-09-24T13:00:40;2.97;;;1.00;;
4686;SDS011;2357;47.316;-1.348;2022-09-24T13:03:29;3.43;;;1.10;;
4686;SDS011;2357;47.316;-1.348;2022-09-24T13:05:58;4.43;;;0.90;;
4686;SDS011;2357;47.316;-1.348;2022-09-24T13:08:25;3.10;;;1.20;;
4686;SDS011;2357;47.316;-1.348;2022-09-24T13:11:00;1.50;;;0.90;;
4686;SDS011;2357;47.316;-1.348;2022-09-24T13:13:34;1.20;;;0.70;;
4686;SDS011;2357;47.316;-1.348;2022-09-24T13:16:05;8.30;;;0.87;;
4686;SDS011;2357;47.316;-1.348;2022-09-24T13:18:40;4.03;;;0.77;;
4686;SDS011;2357;47.316;-1.348;2022-09-24T13:21:15;1.33;;;0.70;;
4686;SDS011;2357;47.316;-1.348;2022-09-24T13:23:45;2.97;;;0.80;;
4686;SDS011;2357;47.316;-1.348;2022-09-24T13:26:14;1.73;;;0.80;;
4686;SDS011;2357;47.316;-1.348;2022-09-24T13:29:20;4.00;;;0.73;;
4686;SDS011;2357;47.316;-1.348;2022-09-24T13:31:53;3.33;;;0.60;;
4686;SDS011;2357;47.316;-1.348;2022-09-24T13:34:27;0.80;;;0.50;;
4686;SDS011;2357;47.316;-1.348;2022-09-24T13:36:58;5.40;;;2.00;;
4686;SDS011;2357;47.316;-1.348;2022-09-24T13:39:58;1.40;;;0.60;;
4686;SDS011;2357;47.316;-1.348;2022-09-24T13:45:02;2.10;;;0.90;;
4686;SDS011;2357;47.316;-1.348;2022-09-24T13:47:47;4.77;;;1.60;;
4686;SDS011;2357;47.316;-1.348;2022-09-24T13:50:36;5.60;;;0.80;;
4686;SDS011;2357;47.316;-1.348;2022-09-24T13:53:12;1.80;;;0.87;;
4686;SDS011;2357;47.316;-1.348;2022-09-24T13:55:53;2.03;;;1.07;;
4686;SDS011;2357;47.316;-1.348;2022-09-24T13:58:29;1.93;;;1.03;;
4686;SDS011;2357;47.316;-1.348;2022-09-24T14:01:02;2.10;;;0.73;;
4686;SDS011;2357;47.316;-1.348;2022-09-24T14:03:31;1.90;;;0.77;;
4686;SDS011;2357;47.316;-1.348;2022-09-24T14:05:59;3.33;;;0.73;;
4686;SDS011;2357;47.316;-1.348;2022-09-24T14:08:26;2.40;;;0.80;;
4686;SDS011;2357;47.316;-1.348;2022-09-24T14:13:51;4.20;;;0.90;;
4686;SDS011;2357;47.316;-1.348;2022-09-24T14:16:22;2.23;;;0.60;;
4686;SDS011;2357;47.316;-1.348;2022-09-24T14:18:59;4.83;;;0.60;;
4686;SDS011;2357;47.316;-1.348;2022-09-24T14:21:33;2.30;;;0.70;;
4686;SDS011;2357;47.316;-1.348;2022-09-24T14:24:06;2.60;;;1.00;;
4686;SDS011;2357;47.316;-1.348;2022-09-24T14:27:02;3.20;;;1.57;;
4686;SDS011;2357;47.316;-1.348;2022-09-24T14:29:39;3.10;;;0.60;;
4686;SDS011;2357;47.316;-1.348;2022-09-24T14:32:28;3.97;;;0.77;;
4686;SDS011;2357;47.316;-1.348;2022-09-24T14:35:07;5.20;;;1.27;;
4686;SDS011;2357;47.316;-1.348;2022-09-24T14:37:45;1.90;;;0.70;;
4686;SDS011;2357;47.316;-1.348;2022-09-24T14:40:15;2.43;;;0.80;;
4686;SDS011;2357;47.316;-1.348;2022-09-24T14:42:46;1.33;;;1.23;;
4686;SDS011;2357;47.316;-1.348;2022-09-24T14:45:32;3.27;;;0.87;;
4686;SDS011;2357;47.316;-1.348;2022-09-24T14:48:04;5.27;;;1.60;;
4686;SDS011;2357;47.316;-1.348;2022-09-24T14:50:41;5.03;;;0.80;;
4686;SDS011;2357;47.316;-1.348;2022-09-24T14:53:55;4.50;;;1.43;;
4686;SDS011;2357;47.316;-1.348;2022-09-24T14:56:20;0.80;;;0.60;;
4686;SDS011;2357;47.316;-1.348;2022-09-24T14:58:56;1.23;;;1.13;;
4686;SDS011;2357;47.316;-1.348;2022-09-24T15:01:32;4.40;;;1.03;;
4686;SDS011;2357;47.316;-1.348;2022-09-24T15:03:59;2.73;;;1.10;;
4686;SDS011;2357;47.316;-1.348;2022-09-24T15:06:30;2.10;;;0.60;;
4686;SDS011;2357;47.316;-1.348;2022-09-24T15:09:05;0.90;;;0.50;;
4686;SDS011;2357;47.316;-1.348;2022-09-24T15:11:49;5.47;;;0.70;;
4686;SDS011;2357;47.316;-1.348;2022-09-24T15:16:40;1.23;;;0.70;;
4686;SDS011;2357;47.316;-1.348;2022-09-24T15:19:40;5.90;;;1.80;;
4686;SDS011;2357;47.316;-1.348;2022-09-24T15:22:00;3.80;;;0.80;;
4686;SDS011;2357;47.316;-1.348;2022-09-24T15:24:26;1.53;;;0.90;;
4686;SDS011;2357;47.316;-1.348;2022-09-24T15:29:40;1.77;;;0.80;;
4686;SDS011;2357;47.316;-1.348;2022-09-24T15:32:13;1.23;;;0.80;;
4686;SDS011;2357;47.316;-1.348;2022-09-24T15:34:40;1.07;;;0.70;;
4686;SDS011;2357;47.316;-1.348;2022-09-24T15:37:07;1.80;;;0.50;;
4686;SDS011;2357;47.316;-1.348;2022-09-24T15:39:35;1.80;;;0.80;;
4686;SDS011;2357;47.316;-1.348;2022-09-24T15:42:01;0.80;;;0.80;;
4686;SDS011;2357;47.316;-1.348;2022-09-24T15:44:26;1.53;;;0.70;;
4686;SDS011;2357;47.316;-1.348;2022-09-24T15:46:52;2.00;;;0.60;;
4686;SDS011;2357;47.316;-1.348;2022-09-24T15:49:19;3.70;;;0.83;;
4686;SDS011;2357;47.316;-1.348;2022-09-24T15:51:56;0.70;;;0.60;;
4686;SDS011;2357;47.316;-1.348;2022-09-24T15:54:26;1.10;;;0.90;;
4686;SDS011;2357;47.316;-1.348;2022-09-24T15:56:52;3.83;;;0.90;;
4686;SDS011;2357;47.316;-1.348;2022-09-24T15:59:19;6.17;;;0.60;;
4686;SDS011;2357;47.316;-1.348;2022-09-24T16:01:45;1.50;;;0.90;;
4686;SDS011;2357;47.316;-1.348;2022-09-24T16:04:13;2.28;;;0.70;;
4686;SDS011;2357;47.316;-1.348;2022-09-24T16:06:38;2.60;;;0.80;;
4686;SDS011;2357;47.316;-1.348;2022-09-24T16:09:04;3.50;;;1.00;;
4686;SDS011;2357;47.316;-1.348;2022-09-24T16:11:30;1.20;;;0.70;;
4686;SDS011;2357;47.316;-1.348;2022-09-24T16:13:55;1.90;;;0.77;;
4686;SDS011;2357;47.316;-1.348;2022-09-24T16:16:21;0.87;;;0.87;;
4686;SDS011;2357;47.316;-1.348;2022-09-24T16:18:47;1.77;;;0.70;;
4686;SDS011;2357;47.316;-1.348;2022-09-24T16:21:12;1.60;;;0.77;;
4686;SDS011;2357;47.316;-1.348;2022-09-24T16:23:38;0.87;;;0.50;;
4686;SDS011;2357;47.316;-1.348;2022-09-24T16:26:04;0.90;;;0.77;;
4686;SDS011;2357;47.316;-1.348;2022-09-24T16:28:30;1.20;;;0.70;;
4686;SDS011;2357;47.316;-1.348;2022-09-24T16:30:55;0.80;;;0.70;;
4686;SDS011;2357;47.316;-1.348;2022-09-24T16:33:22;2.50;;;0.90;;
4686;SDS011;2357;47.316;-1.348;2022-09-24T16:35:48;2.53;;;1.37;;
4686;SDS011;2357;47.316;-1.348;2022-09-24T16:38:13;1.70;;;1.10;;
4686;SDS011;2357;47.316;-1.348;2022-09-24T16:40:39;2.57;;;1.00;;
4686;SDS011;2357;47.316;-1.348;2022-09-24T16:43:05;0.53;;;0.53;;
4686;SDS011;2357;47.316;-1.348;2022-09-24T16:45:31;0.93;;;0.60;;
4686;SDS011;2357;47.316;-1.348;2022-09-24T16:47:57;13.40;;;1.10;;
4686;SDS011;2357;47.316;-1.348;2022-09-24T16:50:23;0.77;;;0.60;;
4686;SDS011;2357;47.316;-1.348;2022-09-24T16:52:49;1.23;;;0.70;;
4686;SDS011;2357;47.316;-1.348;2022-09-24T16:55:18;12.57;;;1.43;;
4686;SDS011;2357;47.316;-1.348;2022-09-24T16:57:45;1.70;;;0.80;;
4686;SDS011;2357;47.316;-1.348;2022-09-24T17:00:10;1.70;;;0.60;;
4686;SDS011;2357;47.316;-1.348;2022-09-24T17:02:37;1.23;;;0.60;;
4686;SDS011;2357;47.316;-1.348;2022-09-24T17:05:03;1.90;;;0.90;;
4686;SDS011;2357;47.316;-1.348;2022-09-24T17:07:29;2.37;;;0.70;;
4686;SDS011;2357;47.316;-1.348;2022-09-24T17:09:56;2.67;;;0.80;;
4686;SDS011;2357;47.316;-1.348;2022-09-24T17:12:38;1.70;;;1.07;;